createdAt,value
2019-01-03T00:02:10.933Z,103201.50
2019-01-03T00:04:41.035Z,103202.97
2019-01-03T00:07:16.797Z,103201.41
2019-01-03T00:09:52.599Z,103200.16
2019-01-03T00:12:31.308Z,103205.39
2019-01-03T00:15:17.833Z,103208.72
2019-01-03T00:17:53.982Z,103213.22
2019-01-03T00:20:33.230Z,103203.84
2019-01-03T00:23:08.769Z,103203.97
2019-01-03T00:25:47.855Z,103197.87
2019-01-03T00:28:36.053Z,103199.34
2019-01-03T00:31:08.670Z,103201.82
2019-01-03T00:33:41.339Z,103196.52
2019-01-03T00:36:23.507Z,103206.28
2019-01-03T00:38:56.372Z,103206.36
2019-01-03T00:41:26.450Z,103197.73
2019-01-03T00:43:56.519Z,103205.84
2019-01-03T00:46:26.599Z,103202.94
2019-01-03T00:49:12.826Z,103188.79
2019-01-03T00:51:48.379Z,103188.36
2019-01-03T00:54:34.643Z,103191.98
2019-01-03T00:57:16.868Z,103189.78
2019-01-03T00:59:58.707Z,103186.28
2019-01-03T01:02:31.473Z,103192.31
2019-01-03T01:05:03.959Z,103190.42
2019-01-03T01:07:46.123Z,103197.82
2019-01-03T01:10:32.269Z,103203.56
2019-01-03T01:13:18.434Z,103203.64
2019-01-03T01:15:54.631Z,103214.46
2019-01-03T01:18:24.724Z,103216.03
2019-01-03T01:20:57.744Z,103217.28
2019-01-03T01:23:39.401Z,103225.50
2019-01-03T01:26:24.250Z,103217.98
2019-01-03T01:28:54.332Z,103215.53
2019-01-03T01:31:39.731Z,103224.14
2019-01-03T01:34:15.441Z,103220.02
2019-01-03T01:36:57.313Z,103218.97
2019-01-03T01:39:39.382Z,103224.55
2019-01-03T01:42:25.511Z,103227.28
2019-01-03T01:44:58.018Z,103219.15
2019-01-03T01:47:33.783Z,103224.15
2019-01-03T01:50:15.851Z,103217.03
2019-01-03T01:52:48.964Z,103224.58
2019-01-03T01:55:34.081Z,103236.69
2019-01-03T01:58:10.112Z,103230.95
2019-01-03T02:00:40.200Z,103227.64
2019-01-03T02:03:26.733Z,103223.34
2019-01-03T02:05:59.585Z,103218.63
2019-01-03T02:08:45.075Z,103221.08
2019-01-03T02:11:30.116Z,103214.04
2019-01-03T02:14:16.317Z,103226.54
2019-01-03T02:16:58.616Z,103229.86
2019-01-03T02:19:37.454Z,103225.03
2019-01-03T02:22:24.070Z,103231.81
2019-01-03T02:25:08.872Z,103235.47
2019-01-03T02:27:51.004Z,103237.56
2019-01-03T02:30:26.986Z,103239.63
2019-01-03T02:32:57.050Z,103241.75
2019-01-03T02:35:27.153Z,103232.47
2019-01-03T02:37:57.213Z,103234.78
2019-01-03T02:40:27.301Z,103233.16
2019-01-03T02:43:09.414Z,103226.30
2019-01-03T02:45:57.528Z,103225.14
2019-01-03T02:48:30.327Z,103229.32
2019-01-03T02:51:00.415Z,103228.02
2019-01-03T02:53:48.505Z,103224.38
2019-01-03T02:56:21.047Z,103231.74
2019-01-03T02:58:59.697Z,103229.03
2019-01-03T03:01:39.006Z,103224.55
2019-01-03T03:04:09.072Z,103235.25
2019-01-03T03:06:54.391Z,103233.55
2019-01-03T03:09:24.459Z,103230.88
2019-01-03T03:12:00.033Z,103235.83
2019-01-03T03:14:30.107Z,103228.74
2019-01-03T03:17:02.915Z,103228.28
2019-01-03T03:19:41.936Z,103237.52
2019-01-03T03:22:14.477Z,103238.68
2019-01-03T03:25:00.700Z,103233.44
2019-01-03T03:27:36.801Z,103221.99
2019-01-03T03:30:09.937Z,103227.55
2019-01-03T03:32:51.716Z,103210.00
2019-01-03T03:35:27.605Z,103216.68
2019-01-03T03:38:13.839Z,103213.14
2019-01-03T03:41:00.110Z,103215.34
2019-01-03T03:43:32.853Z,103205.59
2019-01-03T03:46:19.091Z,103214.55
2019-01-03T03:49:04.237Z,103215.88
2019-01-03T03:51:43.795Z,103213.61
2019-01-03T03:54:29.658Z,103218.45
2019-01-03T03:57:08.987Z,103216.64
2019-01-03T03:59:44.725Z,103208.23
2019-01-03T04:02:17.739Z,103210.00
2019-01-03T04:05:03.734Z,103211.30
2019-01-03T04:07:48.862Z,103211.30
2019-01-03T04:10:21.541Z,103215.67
2019-01-03T04:12:54.619Z,103212.23
2019-01-03T04:15:36.685Z,103218.55
2019-01-03T04:18:16.000Z,103213.86
2019-01-03T04:20:46.060Z,103207.28
2019-01-03T04:23:22.253Z,103212.73
2019-01-03T04:25:52.317Z,103206.22
2019-01-03T04:28:31.199Z,103211.20
2019-01-03T04:31:17.619Z,103208.64
2019-01-03T04:33:53.502Z,103207.84
2019-01-03T04:36:32.685Z,103200.33
2019-01-03T04:39:02.768Z,103199.50
2019-01-03T04:41:39.051Z,103198.80
2019-01-03T04:44:15.342Z,103209.42
2019-01-03T04:46:48.010Z,103206.25
2019-01-03T04:49:27.001Z,103205.74
2019-01-03T04:52:15.091Z,103196.33
2019-01-03T04:54:57.304Z,103191.34
2019-01-03T04:57:30.048Z,103196.69
2019-01-03T05:00:05.822Z,103198.49
2019-01-03T05:02:35.887Z,103194.88
2019-01-03T05:05:23.575Z,103192.72
2019-01-03T05:08:11.496Z,103193.59
2019-01-03T05:10:41.584Z,103191.67
2019-01-03T05:13:17.600Z,103191.06
2019-01-03T05:16:04.042Z,103189.05
2019-01-03T05:18:34.110Z,103192.48
2019-01-03T05:21:20.064Z,103190.43
2019-01-03T05:23:57.265Z,103187.25
2019-01-03T05:26:30.439Z,103186.13
2019-01-03T05:29:00.509Z,103173.23
2019-01-03T05:31:39.572Z,103175.80
2019-01-03T05:34:15.544Z,103181.14
2019-01-03T05:36:45.622Z,103184.69
2019-01-03T05:39:31.908Z,103174.94
2019-01-03T05:42:20.367Z,103181.62
2019-01-03T05:45:06.560Z,103185.23
2019-01-03T05:47:48.617Z,103189.45
2019-01-03T05:50:34.752Z,103188.98
2019-01-03T05:53:10.803Z,103198.23
2019-01-03T05:55:57.005Z,103204.15
2019-01-03T05:58:27.071Z,103201.84
2019-01-03T06:01:12.460Z,103197.42
2019-01-03T06:03:42.529Z,103196.71
2019-01-03T06:06:27.614Z,103201.33
2019-01-03T06:09:13.515Z,103208.16
2019-01-03T06:11:46.582Z,103208.48
2019-01-03T06:14:22.384Z,103208.88
2019-01-03T06:16:55.660Z,103204.47
2019-01-03T06:19:43.900Z,103211.00
2019-01-03T06:22:16.715Z,103212.88
2019-01-03T06:25:02.913Z,103218.63
2019-01-03T06:27:39.222Z,103215.38
2019-01-03T06:30:09.446Z,103215.09
2019-01-03T06:32:39.534Z,103211.27
2019-01-03T06:35:26.330Z,103217.12
2019-01-03T06:38:14.440Z,103220.26
2019-01-03T06:41:00.723Z,103215.85
2019-01-03T06:43:30.805Z,103215.42
2019-01-03T06:46:00.880Z,103219.61
2019-01-03T06:48:42.932Z,103221.20
2019-01-03T06:51:18.969Z,103230.22
2019-01-03T06:54:01.324Z,103221.91
2019-01-03T06:56:37.077Z,103225.53
2019-01-03T06:59:22.337Z,103227.80
2019-01-03T07:01:55.143Z,103229.14
2019-01-03T07:04:41.387Z,103230.75
2019-01-03T07:07:27.595Z,103235.08
2019-01-03T07:10:09.453Z,103232.84
2019-01-03T07:12:39.513Z,103243.44
2019-01-03T07:15:27.859Z,103247.70
2019-01-03T07:17:57.947Z,103263.42
2019-01-03T07:20:29.229Z,103275.70
2019-01-03T07:23:16.532Z,103273.84
2019-01-03T07:26:01.707Z,103282.91
2019-01-03T07:28:31.803Z,103276.39
2019-01-03T07:31:07.456Z,103276.41
2019-01-03T07:33:55.829Z,103270.56
2019-01-03T07:36:43.692Z,103279.08
2019-01-03T07:39:29.668Z,103281.69
2019-01-03T07:42:02.490Z,103287.53
2019-01-03T07:44:34.994Z,103283.47
2019-01-03T07:47:20.027Z,103290.33
2019-01-03T07:49:53.136Z,103295.34
2019-01-03T07:52:39.399Z,103299.67
2019-01-03T07:55:09.555Z,103300.48
2019-01-03T07:57:56.015Z,103294.11
2019-01-03T08:00:26.107Z,103286.03
2019-01-03T08:03:12.402Z,103283.56
2019-01-03T08:05:58.832Z,103280.75
2019-01-03T08:08:31.616Z,103290.77
2019-01-03T08:11:13.326Z,103286.22
2019-01-03T08:13:46.348Z,103295.70
2019-01-03T08:16:32.858Z,103290.73
2019-01-03T08:19:08.910Z,103296.16
2019-01-03T08:21:47.871Z,103302.05
2019-01-03T08:24:17.928Z,103302.99
2019-01-03T08:27:04.354Z,103301.77
2019-01-03T08:29:46.177Z,103301.91
2019-01-03T08:32:16.265Z,103306.64
2019-01-03T08:34:48.790Z,103303.11
2019-01-03T08:37:27.701Z,103307.12
2019-01-03T08:40:13.757Z,103306.20
2019-01-03T08:43:00.105Z,103300.87
2019-01-03T08:45:42.511Z,103310.27
2019-01-03T08:48:12.599Z,103309.84
2019-01-03T08:50:58.781Z,103310.72
2019-01-03T08:53:44.962Z,103309.42
2019-01-03T08:56:31.400Z,103305.53
2019-01-03T08:59:16.462Z,103304.62
2019-01-03T09:02:02.494Z,103305.36
2019-01-03T09:04:48.608Z,103310.57
2019-01-03T09:07:34.789Z,103311.42
2019-01-03T09:10:05.162Z,103308.76
2019-01-03T09:12:37.658Z,103313.92
2019-01-03T09:15:07.889Z,103311.63
2019-01-03T09:17:43.528Z,103310.24
2019-01-03T09:20:31.892Z,103319.16
2019-01-03T09:23:08.238Z,103321.02
2019-01-03T09:25:54.440Z,103322.78
2019-01-03T09:28:30.224Z,103324.86
2019-01-03T09:31:15.543Z,103326.93
2019-01-03T09:33:48.477Z,103323.97
2019-01-03T09:36:35.134Z,103319.67
2019-01-03T09:39:21.084Z,103318.11
2019-01-03T09:42:09.352Z,103322.50
2019-01-03T09:44:46.795Z,103314.41
2019-01-03T09:47:15.260Z,103313.65
2019-01-03T09:49:43.684Z,103315.40
2019-01-03T09:52:12.171Z,103310.13
2019-01-03T09:54:40.627Z,103305.72
2019-01-03T09:57:09.056Z,103302.11
2019-01-03T09:59:37.489Z,103301.67
2019-01-03T10:02:06.036Z,103303.16
2019-01-03T10:04:34.476Z,103287.83
2019-01-03T10:07:02.889Z,103288.84
2019-01-03T10:09:31.331Z,103279.93
2019-01-03T10:11:59.733Z,103272.86
2019-01-03T10:14:28.176Z,103272.16
2019-01-03T10:16:56.586Z,103270.02
2019-01-03T10:19:25.015Z,103271.18
2019-01-03T10:21:53.428Z,103260.37
2019-01-03T10:24:21.862Z,103262.17
2019-01-03T10:26:50.263Z,103260.81
2019-01-03T10:29:18.706Z,103261.63
2019-01-03T10:31:47.134Z,103273.26
2019-01-03T10:34:15.580Z,103275.95
2019-01-03T10:36:43.990Z,103273.69
2019-01-03T10:39:12.429Z,103263.64
2019-01-03T10:41:40.843Z,103251.69
2019-01-03T10:44:09.282Z,103264.92
2019-01-03T10:46:37.760Z,103272.91
2019-01-03T10:49:06.210Z,103285.69
2019-01-03T10:51:34.627Z,103270.70
2019-01-03T10:54:03.067Z,103264.06
2019-01-03T10:56:31.484Z,103267.00
2019-01-03T10:58:59.920Z,103267.73
2019-01-03T11:01:28.339Z,103268.42
2019-01-03T11:03:56.777Z,103260.09
2019-01-03T11:06:25.183Z,103266.17
2019-01-03T11:08:53.597Z,103257.01
2019-01-03T11:11:22.107Z,103256.56
2019-01-03T11:13:50.511Z,103257.45
2019-01-03T11:16:18.950Z,103248.77
2019-01-03T11:18:47.373Z,103247.14
2019-01-03T11:21:15.808Z,103256.20
2019-01-03T11:23:44.217Z,103254.84
2019-01-03T11:26:12.656Z,103250.52
2019-01-03T11:28:41.067Z,103261.43
2019-01-03T11:31:09.576Z,103264.04
2019-01-03T11:33:37.999Z,103262.64
2019-01-03T11:36:06.433Z,103255.04
2019-01-03T11:38:34.849Z,103252.13
2019-01-03T11:41:03.294Z,103257.84
2019-01-03T11:43:31.714Z,103252.63
2019-01-03T11:46:00.163Z,103257.25
2019-01-03T11:48:28.578Z,103255.83
2019-01-03T11:50:57.014Z,103254.55
2019-01-03T11:53:25.435Z,103255.16
2019-01-03T11:55:53.879Z,103252.27
2019-01-03T11:58:22.289Z,103249.64
2019-01-03T12:00:50.724Z,103244.52
2019-01-03T12:03:19.132Z,103236.72
2019-01-03T12:05:47.639Z,103239.41
2019-01-03T12:08:16.083Z,103237.96
2019-01-03T12:10:44.494Z,103254.86
2019-01-03T12:13:12.941Z,103253.80
2019-01-03T12:15:41.364Z,103244.73
2019-01-03T12:18:09.810Z,103248.97
2019-01-03T12:20:38.232Z,103241.65
2019-01-03T12:23:06.673Z,103234.03
2019-01-03T12:25:35.085Z,103248.39
2019-01-03T12:28:03.599Z,103241.34
2019-01-03T12:30:32.009Z,103237.88
2019-01-03T12:33:00.452Z,103239.72
2019-01-03T12:35:28.869Z,103236.72
2019-01-03T12:37:57.317Z,103248.76
2019-01-03T12:40:25.729Z,103240.20
2019-01-03T12:42:54.179Z,103249.53
2019-01-03T12:45:22.596Z,103245.97
2019-01-03T12:47:51.117Z,103247.63
2019-01-03T12:50:19.533Z,103244.63
2019-01-03T12:52:49.063Z,103249.92
2019-01-03T12:55:17.688Z,103245.12
2019-01-03T12:57:46.131Z,103242.80
2019-01-03T13:00:14.989Z,103246.05
2019-01-03T13:02:43.438Z,103239.78
2019-01-03T13:05:11.919Z,103242.59
2019-01-03T13:07:40.432Z,103247.39
2019-01-03T13:10:08.918Z,103243.65
2019-01-03T13:12:37.358Z,103234.32
2019-01-03T13:15:06.713Z,103236.61
2019-01-03T13:17:35.152Z,103234.69
2019-01-03T13:20:04.040Z,103239.22
2019-01-03T13:22:32.473Z,103231.68
2019-01-03T13:25:00.893Z,103231.39
2019-01-03T13:27:29.329Z,103238.88
2019-01-03T13:29:57.743Z,103235.68
2019-01-03T13:32:26.188Z,103243.08
2019-01-03T13:34:54.595Z,103242.91
2019-01-03T13:37:23.041Z,103249.27
2019-01-03T13:39:51.467Z,103253.01
2019-01-03T13:42:19.900Z,103256.27
2019-01-03T13:44:48.316Z,103245.26
2019-01-03T13:47:16.740Z,103244.44
2019-01-03T13:49:45.178Z,103243.16
2019-01-03T13:52:13.593Z,103247.24
2019-01-03T13:54:42.042Z,103253.22
2019-01-03T13:57:10.452Z,103252.53
2019-01-03T13:59:38.892Z,103258.09
2019-01-03T14:02:08.190Z,103261.13
2019-01-03T14:04:36.632Z,103255.84
2019-01-03T14:07:05.046Z,103251.96
2019-01-03T14:09:33.488Z,103246.75
2019-01-03T14:12:01.900Z,103250.19
2019-01-03T14:14:30.338Z,103248.31
2019-01-03T14:16:58.754Z,103251.99
2019-01-03T14:19:27.198Z,103253.87
2019-01-03T14:21:55.615Z,103254.37
2019-01-03T14:24:24.063Z,103250.85
2019-01-03T14:26:52.478Z,103255.09
2019-01-03T14:29:20.920Z,103257.56
2019-01-03T14:31:49.338Z,103253.23
2019-01-03T14:34:17.784Z,103259.02
2019-01-03T14:36:46.201Z,103261.56
2019-01-03T14:39:14.641Z,103257.13
2019-01-03T14:41:43.060Z,103259.05
2019-01-03T14:44:11.500Z,103264.91
2019-01-03T14:46:39.918Z,103261.41
2019-01-03T14:49:08.359Z,103262.05
2019-01-03T14:51:36.783Z,103266.71
2019-01-03T14:54:05.271Z,103262.92
2019-01-03T14:56:33.709Z,103270.37
2019-01-03T14:59:02.131Z,103276.05
2019-01-03T15:01:30.574Z,103282.91
2019-01-03T15:03:58.991Z,103274.37
2019-01-03T15:06:27.442Z,103281.03
2019-01-03T15:08:55.856Z,103287.42
2019-01-03T15:11:24.304Z,103280.79
2019-01-03T15:13:52.782Z,103286.94
2019-01-03T15:16:21.230Z,103288.55
2019-01-03T15:18:49.641Z,103291.06
2019-01-03T15:21:18.083Z,103298.59
2019-01-03T15:23:46.503Z,103297.09
2019-01-03T15:26:14.953Z,103299.93
2019-01-03T15:28:43.368Z,103306.18
2019-01-03T15:31:11.812Z,103311.70
2019-01-03T15:33:40.225Z,103312.72
2019-01-03T15:36:08.670Z,103317.23
2019-01-03T15:38:37.091Z,103311.08
2019-01-03T15:41:05.547Z,103314.30
2019-01-03T15:43:33.967Z,103315.31
2019-01-03T15:46:02.414Z,103324.81
2019-01-03T15:48:30.835Z,103321.64
2019-01-03T15:50:59.358Z,103328.98
2019-01-03T15:53:27.772Z,103328.59
2019-01-03T15:55:56.226Z,103331.82
2019-01-03T15:58:24.648Z,103329.70
2019-01-03T16:00:53.088Z,103335.13
2019-01-03T16:03:21.498Z,103339.73
2019-01-03T16:05:50.031Z,103345.30
2019-01-03T16:08:18.468Z,103340.10
2019-01-03T16:10:47.032Z,103345.28
2019-01-03T16:13:15.480Z,103358.47
2019-01-03T16:15:43.905Z,103358.70
2019-01-03T16:18:12.363Z,103359.84
2019-01-03T16:20:40.794Z,103368.85
2019-01-03T16:23:09.250Z,103374.84
2019-01-03T16:25:37.743Z,103375.62
2019-01-03T16:28:06.193Z,103377.91
2019-01-03T16:30:34.648Z,103385.97
2019-01-03T16:33:03.163Z,103384.58
2019-01-03T16:35:31.594Z,103384.10
2019-01-03T16:38:00.037Z,103382.76
2019-01-03T16:40:28.455Z,103383.38
2019-01-03T16:42:56.911Z,103378.87
2019-01-03T16:45:25.328Z,103375.37
2019-01-03T16:47:53.780Z,103365.71
2019-01-03T16:50:22.199Z,103365.59
2019-01-03T16:52:50.721Z,103360.53
2019-01-03T16:55:19.219Z,103363.16
2019-01-03T16:57:47.672Z,103361.16
2019-01-03T17:00:16.105Z,103359.00
2019-01-03T17:02:44.619Z,103365.80
2019-01-03T17:05:13.042Z,103356.33
2019-01-03T17:07:41.491Z,103354.60
2019-01-03T17:10:12.361Z,103348.84
2019-01-03T17:12:40.808Z,103350.66
2019-01-03T17:15:09.377Z,103353.76
2019-01-03T17:17:37.856Z,103359.03
2019-01-03T17:20:09.265Z,103350.92
2019-01-03T17:22:37.651Z,103347.58
2019-01-03T17:25:08.844Z,103346.49
2019-01-03T17:27:37.282Z,103339.17
2019-01-03T17:30:08.080Z,103333.42
2019-01-03T17:32:36.505Z,103340.52
2019-01-03T17:35:07.594Z,103343.47
2019-01-03T17:37:36.025Z,103355.87
2019-01-03T17:40:07.279Z,103348.18
2019-01-03T17:42:35.780Z,103352.25
2019-01-03T17:45:05.371Z,103362.97
2019-01-03T17:47:33.786Z,103364.27
2019-01-03T17:50:02.240Z,103357.16
2019-01-03T17:52:30.661Z,103354.87
2019-01-03T17:54:59.112Z,103355.77
2019-01-03T17:57:27.538Z,103354.59
2019-01-03T17:59:55.994Z,103358.63
2019-01-03T18:02:24.461Z,103362.52
2019-01-03T18:04:52.874Z,103365.59
2019-01-03T18:07:21.297Z,103372.52
2019-01-03T18:09:49.717Z,103376.20
2019-01-03T18:12:18.164Z,103369.56
2019-01-03T18:14:46.587Z,103366.89
2019-01-03T18:17:15.111Z,103372.94
2019-01-03T18:19:43.603Z,103371.91
2019-01-03T18:22:12.054Z,103369.39
2019-01-03T18:24:40.482Z,103370.30
2019-01-03T18:27:08.931Z,103376.53
2019-01-03T18:29:37.355Z,103375.94
2019-01-03T18:32:05.877Z,103375.89
2019-01-03T18:34:34.376Z,103384.28
2019-01-03T18:37:02.836Z,103386.19
2019-01-03T18:39:31.258Z,103388.41
2019-01-03T18:41:59.719Z,103391.98
2019-01-03T18:44:28.147Z,103395.06
2019-01-03T18:46:56.598Z,103395.84
2019-01-03T18:49:25.018Z,103391.22
2019-01-03T18:51:53.467Z,103391.91
2019-01-03T18:54:21.898Z,103392.16
2019-01-03T18:56:50.345Z,103389.66
2019-01-03T18:59:18.775Z,103394.72
2019-01-03T19:01:47.230Z,103390.91
2019-01-03T19:04:15.653Z,103395.80
2019-01-03T19:06:44.115Z,103392.64
2019-01-03T19:09:12.541Z,103394.03
2019-01-03T19:11:40.993Z,103383.38
2019-01-03T19:14:09.412Z,103391.69
2019-01-03T19:16:37.945Z,103390.34
2019-01-03T19:19:06.367Z,103403.51
2019-01-03T19:21:34.891Z,103400.95
2019-01-03T19:24:03.382Z,103404.45
2019-01-03T19:26:31.833Z,103402.16
2019-01-03T19:29:00.256Z,103401.64
2019-01-03T19:31:28.786Z,103397.41
2019-01-03T19:33:57.212Z,103394.67
2019-01-03T19:36:25.634Z,103399.89
2019-01-03T19:38:54.092Z,103395.13
2019-01-03T19:41:22.586Z,103402.44
2019-01-03T19:43:51.039Z,103401.10
2019-01-03T19:46:19.464Z,103404.44
2019-01-03T19:48:47.912Z,103390.98
2019-01-03T19:51:16.344Z,103392.50
2019-01-03T19:53:44.788Z,103400.08
2019-01-03T19:56:13.217Z,103392.85
2019-01-03T19:58:41.668Z,103393.20
2019-01-03T20:01:10.097Z,103392.77
2019-01-03T20:03:38.564Z,103392.45
2019-01-03T20:06:06.997Z,103389.78
2019-01-03T20:08:35.459Z,103391.98
2019-01-03T20:11:03.958Z,103397.14
2019-01-03T20:13:32.413Z,103404.98
2019-01-03T20:16:00.834Z,103398.22
2019-01-03T20:18:29.281Z,103405.19
2019-01-03T20:20:57.776Z,103406.45
2019-01-03T20:23:26.224Z,103404.59
2019-01-03T20:25:54.657Z,103403.42
2019-01-03T20:28:23.109Z,103409.53
2019-01-03T20:30:51.536Z,103406.80
2019-01-03T20:33:19.989Z,103410.39
2019-01-03T20:35:48.414Z,103399.27
2019-01-03T20:38:16.887Z,103405.66
2019-01-03T20:40:45.303Z,103404.98
2019-01-03T20:43:13.808Z,103406.88
2019-01-03T20:45:42.264Z,103405.06
2019-01-03T20:48:10.694Z,103397.88
2019-01-03T20:50:39.212Z,103395.72
2019-01-03T20:53:07.637Z,103398.27
2019-01-03T20:55:36.160Z,103395.24
2019-01-03T20:58:04.662Z,103394.80
2019-01-03T21:00:33.114Z,103393.45
2019-01-03T21:03:01.616Z,103387.19
2019-01-03T21:05:30.086Z,103385.93
2019-01-03T21:07:58.517Z,103384.72
2019-01-03T21:10:26.976Z,103386.14
2019-01-03T21:12:55.477Z,103382.59
2019-01-03T21:15:23.932Z,103376.41
2019-01-03T21:17:52.359Z,103379.78
2019-01-03T21:20:20.810Z,103380.70
2019-01-03T21:22:49.243Z,103376.75
2019-01-03T21:25:17.885Z,103383.55
2019-01-03T21:27:46.304Z,103380.86
2019-01-03T21:30:17.074Z,103377.23
2019-01-03T21:32:45.533Z,103379.44
2019-01-03T21:35:13.964Z,103375.06
2019-01-03T21:37:42.488Z,103378.70
2019-01-03T21:40:11.859Z,103373.41
2019-01-03T21:42:40.314Z,103373.86
2019-01-03T21:45:08.916Z,103367.83
2019-01-03T21:47:37.577Z,103355.77
2019-01-03T21:50:09.060Z,103346.90
2019-01-03T21:52:37.592Z,103343.82
2019-01-03T21:55:06.087Z,103343.03
2019-01-03T21:57:34.536Z,103345.84
2019-01-03T22:00:02.967Z,103339.19
2019-01-03T22:02:31.416Z,103341.40
2019-01-03T22:04:59.847Z,103344.98
2019-01-03T22:07:28.307Z,103343.69
2019-01-03T22:09:56.733Z,103336.25
2019-01-03T22:12:25.189Z,103332.30
2019-01-03T22:14:53.618Z,103328.94
2019-01-03T22:17:22.079Z,103325.86
2019-01-03T22:19:50.512Z,103324.13
2019-01-03T22:22:18.962Z,103321.97
2019-01-03T22:24:47.403Z,103320.23
2019-01-03T22:27:15.854Z,103316.73
2019-01-03T22:29:44.280Z,103312.87
2019-01-03T22:32:13.221Z,103312.66
2019-01-03T22:34:41.621Z,103320.90
2019-01-03T22:37:10.045Z,103321.97
2019-01-03T22:39:38.496Z,103319.02
2019-01-03T22:42:06.926Z,103323.56
2019-01-03T22:44:35.375Z,103320.97
2019-01-03T22:47:03.879Z,103321.01
2019-01-03T22:49:32.357Z,103323.77
2019-01-03T22:52:00.781Z,103318.53
2019-01-03T22:54:29.242Z,103320.73
2019-01-03T22:56:57.668Z,103329.33
2019-01-03T22:59:26.138Z,103327.69
2019-01-03T23:01:54.549Z,103333.95
2019-01-03T23:04:23.075Z,103337.06
2019-01-03T23:06:51.581Z,103331.66
2019-01-03T23:09:20.029Z,103333.87
2019-01-03T23:11:48.454Z,103334.27
2019-01-03T23:14:16.907Z,103324.95
2019-01-03T23:16:45.324Z,103320.12
2019-01-03T23:19:13.781Z,103314.09
2019-01-03T23:21:42.214Z,103308.34
2019-01-03T23:24:10.738Z,103310.42
2019-01-03T23:26:39.169Z,103314.63
2019-01-03T23:29:07.593Z,103320.27
2019-01-03T23:31:36.045Z,103311.23
2019-01-03T23:34:04.478Z,103306.22
2019-01-03T23:36:32.936Z,103300.27
2019-01-03T23:39:01.367Z,103296.63
2019-01-03T23:41:29.822Z,103290.87
2019-01-03T23:43:58.247Z,103293.61
2019-01-03T23:46:26.698Z,103294.47
2019-01-03T23:48:55.125Z,103297.58
2019-01-03T23:51:23.574Z,103302.86
2019-01-03T23:53:52.013Z,103296.43
2019-01-03T23:56:20.459Z,103282.03
2019-01-03T23:58:48.889Z,103284.63
